Time;durP1;ratioP1;P1;durP2;ratioP2;P2;SDS_P1;SDS_P2;PMS_P1;PMS_P2;Temp;Humidity;BMP_temperature;BMP_pressure;BME280_temperature;BME280_humidity;BME280_pressure;Samples;Min_cycle;Max_cycle;Signal;HPM_P1;HPM_P2
2022/12/01 03:16:51;;;;;;;4.03;3.05;;;;;;;-6.47;100.00;101107.48;1795908;77;27377;-70
2022/12/01 03:19:32;;;;;;;3.80;2.60;;;;;;;-6.31;100.00;101115.13;1762262;80;21580;-71
2022/12/01 03:22:10;;;;;;;3.90;3.02;;;;;;;-6.16;100.00;101115.00;1722308;80;21739;-70
2022/12/01 03:24:37;;;;;;;3.75;3.12;;;;;;;-6.02;100.00;101122.05;1750665;80;21422;-70
2022/12/01 03:27:04;;;;;;;4.70;3.20;;;;;;;-5.89;100.00;101111.55;1759431;80;21496;-71
2022/12/01 03:29:40;;;;;;;3.92;2.77;;;;;;;-5.76;100.00;101115.56;1766844;79;21577;-71
2022/12/01 03:32:18;;;;;;;4.30;3.10;;;;;;;-5.63;100.00;101118.30;1742563;80;21595;-68
2022/12/01 03:34:52;;;;;;;5.45;3.00;;;;;;;-5.55;100.00;101110.95;1760412;79;21975;-70
2022/12/01 03:37:37;;;;;;;4.25;3.05;;;;;;;-5.43;100.00;101114.06;1765739;79;21635;-70
2022/12/01 03:40:06;;;;;;;3.00;2.70;;;;;;;-5.31;100.00;101108.63;1749054;79;21577;-73
2022/12/01 03:42:58;;;;;;;5.28;3.30;;;;;;;-5.22;100.00;101110.70;1769403;80;21667;-72
2022/12/01 03:45:49;;;;;;;4.30;3.27;;;;;;;-5.15;100.00;101109.77;1760064;79;21516;-69
2022/12/01 03:48:16;;;;;;;4.62;3.27;;;;;;;-5.06;100.00;101104.17;1752160;80;21759;-70
2022/12/01 03:50:54;;;;;;;4.28;3.25;;;;;;;-4.99;100.00;101103.64;1744980;80;21627;-68
2022/12/01 03:53:26;;;;;;;4.97;3.33;;;;;;;-4.91;100.00;101103.96;1754864;79;21643;-67
2022/12/01 03:56:01;;;;;;;6.72;3.87;;;;;;;-4.86;100.00;101106.30;1762220;80;21584;-69
2022/12/01 03:58:38;;;;;;;5.37;3.50;;;;;;;-4.82;100.00;101106.92;1749107;80;21427;-68
2022/12/01 04:01:04;;;;;;;5.03;3.83;;;;;;;-4.79;100.00;101105.75;1745589;80;21596;-69
2022/12/01 04:03:31;;;;;;;5.30;3.33;;;;;;;-4.76;100.00;101103.75;1734023;80;21961;-69
2022/12/01 04:05:57;;;;;;;5.30;3.33;;;;;;;-4.74;100.00;101107.25;1770187;79;21525;-69
2022/12/01 04:08:24;;;;;;;5.87;3.43;;;;;;;-4.72;100.00;101106.91;1751914;79;21567;-69
2022/12/01 04:10:50;;;;;;;8.08;3.98;;;;;;;-4.74;100.00;101104.27;1756602;79;21438;-69
2022/12/01 04:13:24;;;;;;;4.90;3.90;;;;;;;-4.70;100.00;101110.41;1747320;79;21809;-68
2022/12/01 04:15:52;;;;;;;6.65;3.60;;;;;;;-4.73;100.00;101106.42;1760672;79;21037;-68
2022/12/01 04:18:20;;;;;;;4.30;3.55;;;;;;;-4.73;100.00;101102.57;1763917;79;21666;-69
2022/12/01 04:20:47;;;;;;;;;;;;;;;-4.73;100.00;101102.57;1740247;79;21603;-69
2022/12/01 04:26:00;;;;;;;5.00;3.10;;;;;;;-4.79;100.00;101103.19;1758835;79;21825;-69
2022/12/01 04:28:26;;;;;;;4.90;3.37;;;;;;;-4.75;100.00;101102.91;1760678;80;21639;-70
2022/12/01 04:30:53;;;;;;;4.58;3.62;;;;;;;-4.70;100.00;101104.87;1764200;79;21615;-71
2022/12/01 04:33:20;;;;;;;4.28;3.08;;;;;;;-4.65;100.00;101105.08;1762784;79;21624;-71
2022/12/01 04:36:00;;;;;;;4.37;3.40;;;;;;;-4.61;100.00;101100.95;1754262;78;21638;-71
2022/12/01 04:38:27;;;;;;;5.78;3.45;;;;;;;-4.55;100.00;101107.62;1756921;79;22098;-71
2022/12/01 04:40:53;;;;;;;3.80;2.80;;;;;;;-4.50;100.00;101111.27;1765391;80;21567;-72
2022/12/01 04:43:20;;;;;;;4.47;3.12;;;;;;;-4.46;100.00;101105.81;1766777;79;21623;-72
2022/12/01 04:45:47;;;;;;;4.92;3.40;;;;;;;-4.44;100.00;101106.79;1736147;80;22893;-71
2022/12/01 04:48:13;;;;;;;4.12;3.30;;;;;;;-4.39;100.00;101104.87;1762097;79;21151;-72
2022/12/01 04:50:40;;;;;;;5.83;3.37;;;;;;;-4.37;100.00;101099.78;1686094;82;21770;-71
2022/12/01 04:53:07;;;;;;;5.72;3.33;;;;;;;-4.36;100.00;101096.41;1707733;81;21544;-72
2022/12/01 04:55:37;;;;;;;3.75;2.90;;;;;;;-4.32;100.00;101103.00;1710187;82;21640;-72
2022/12/01 04:58:04;;;;;;;4.65;3.42;;;;;;;-4.30;100.00;101105.64;1703614;82;21708;-71
2022/12/01 05:00:32;;;;;;;4.20;3.30;;;;;;;-4.26;100.00;101102.80;1702403;82;21553;-71
2022/12/01 05:02:58;;;;;;;4.65;3.37;;;;;;;-4.27;100.00;101100.64;1693360;82;21777;-71
2022/12/01 05:05:25;;;;;;;2.65;2.45;;;;;;;-4.25;100.00;101097.73;1706429;82;21451;-70
2022/12/01 05:07:51;;;;;;;4.47;3.30;;;;;;;-4.21;100.00;101106.02;1708690;82;21549;-71
2022/12/01 05:10:18;;;;;;;6.40;3.20;;;;;;;-4.23;100.00;101105.08;1694435;81;22157;-71
2022/12/01 05:12:47;;;;;;;3.92;2.95;;;;;;;-4.21;100.00;101107.30;1701195;82;21593;-71
2022/12/01 05:15:14;;;;;;;7.50;3.45;;;;;;;-4.18;100.00;101108.72;1689340;83;21522;-73
2022/12/01 05:17:41;;;;;;;4.58;3.27;;;;;;;-4.18;100.00;101111.30;1701855;83;21542;-71
2022/12/01 05:22:58;;;;;;;4.50;3.52;;;;;;;-4.17;100.00;101109.59;1690583;82;21479;-70
2022/12/01 05:25:24;;;;;;;6.55;3.55;;;;;;;-4.17;100.00;101110.45;1692200;83;21448;-70
2022/12/01 05:27:51;;;;;;;5.95;3.10;;;;;;;-4.16;100.00;101112.23;1687505;82;21743;-70
2022/12/01 05:30:17;;;;;;;3.75;3.15;;;;;;;-4.16;100.00;101106.22;1700743;83;21514;-68
2022/12/01 05:32:44;;;;;;;6.95;3.33;;;;;;;-4.14;100.00;101104.17;1696526;83;21455;-68
2022/12/01 05:35:11;;;;;;;4.58;2.95;;;;;;;-4.12;100.00;101106.81;1746308;80;21502;-67
2022/12/01 05:37:38;;;;;;;5.30;3.45;;;;;;;-4.13;100.00;101105.04;1754761;79;21627;-69
2022/12/01 05:40:06;;;;;;;5.40;3.67;;;;;;;-4.13;100.00;101103.75;1762823;79;21501;-69
2022/12/01 05:42:33;;;;;;;6.05;3.75;;;;;;;-4.16;100.00;101107.09;1767315;80;21604;-72
2022/12/01 05:44:59;;;;;;;6.20;3.42;;;;;;;-4.17;100.00;101113.45;1741870;79;21577;-69
2022/12/01 05:47:26;;;;;;;4.00;3.42;;;;;;;-4.20;100.00;101110.73;1752210;80;21578;-70
2022/12/01 05:49:52;;;;;;;5.53;3.70;;;;;;;-4.19;100.00;101112.51;1760938;80;21616;-70
2022/12/01 05:52:18;;;;;;;3.83;3.22;;;;;;;-4.19;100.00;101120.22;1756947;80;21856;-70
2022/12/01 05:54:45;;;;;;;6.85;3.52;;;;;;;-4.18;100.00;101123.23;1768242;80;21540;-70
2022/12/01 05:57:11;;;;;;;6.40;3.58;;;;;;;-4.14;100.00;101117.02;1743382;80;21700;-71
2022/12/01 05:59:38;;;;;;;6.65;3.70;;;;;;;-4.09;100.00;101129.16;1754027;79;21580;-71
2022/12/01 06:02:04;;;;;;;8.78;3.70;;;;;;;-4.05;100.00;101129.36;1769091;79;21525;-71
2022/12/01 06:04:31;;;;;;;6.47;3.52;;;;;;;-4.00;100.00;101131.69;1766339;79;25645;-70
2022/12/01 06:06:58;;;;;;;3.90;3.12;;;;;;;-3.97;100.00;101131.82;1770318;78;21567;-71
2022/12/01 06:09:24;;;;;;;5.08;3.70;;;;;;;-3.94;100.00;101134.53;1764876;78;20954;-71
2022/12/01 10:50:27;;;;;;;2.85;2.30;;;;;;;4.59;100.00;100998.09;1778381;78;23357;-71
2022/12/01 10:56:38;;;;;;;3.27;2.37;;;;;;;3.97;100.00;100996.50;1689717;81;21564;-59
2022/12/01 10:59:28;;;;;;;4.58;2.90;;;;;;;3.31;100.00;101006.42;1655341;85;21005;-59
2022/12/01 11:01:54;;;;;;;3.22;2.62;;;;;;;2.95;100.00;101013.45;1637826;85;21669;-58
2022/12/01 11:04:44;;;;;;;3.20;2.45;;;;;;;2.75;100.00;101006.73;1653203;85;21552;-59
2022/12/01 11:07:35;;;;;;;3.45;2.80;;;;;;;2.64;100.00;101001.02;1614985;87;21550;-59
2022/12/01 11:10:16;;;;;;;4.53;2.67;;;;;;;2.44;100.00;101008.99;1576277;87;21932;-60
2022/12/01 11:12:47;;;;;;;4.25;3.45;;;;;;;2.24;100.00;101008.73;1596227;87;21493;-60
2022/12/01 11:15:27;;;;;;;4.20;3.10;;;;;;;2.25;100.00;100997.52;1598293;88;21000;-59
2022/12/01 11:18:07;;;;;;;3.72;3.17;;;;;;;2.28;100.00;101007.91;1625457;86;21503;-60
2022/12/01 11:20:37;;;;;;;3.90;2.87;;;;;;;2.22;100.00;101002.21;1634520;84;21691;-59
2022/12/01 11:23:23;;;;;;;3.47;2.92;;;;;;;2.23;100.00;100998.78;1649895;84;21801;-59
2022/12/01 11:26:04;;;;;;;3.12;2.72;;;;;;;2.21;100.00;100993.14;1623291;86;21622;-57
2022/12/01 11:28:31;;;;;;;3.72;3.00;;;;;;;2.13;100.00;100991.74;1593870;87;21667;-58
2022/12/01 11:31:03;;;;;;;3.35;2.67;;;;;;;2.04;100.00;100986.42;1621632;86;21428;-59
2022/12/01 11:33:29;;;;;;;5.03;3.12;;;;;;;1.93;100.00;100988.43;1619657;86;21578;-60
2022/12/01 11:35:56;;;;;;;5.33;2.90;;;;;;;1.95;100.00;100994.94;1615976;86;21603;-60
2022/12/01 11:38:25;;;;;;;5.65;3.20;;;;;;;2.05;100.00;100986.42;1616404;86;21988;-60
2022/12/01 11:40:54;;;;;;;5.55;3.10;;;;;;;2.13;100.00;100991.74;1589828;88;21650;-60
2022/12/01 11:43:36;;;;;;;2.85;2.45;;;;;;;2.18;100.00;100992.65;1646749;85;21583;-60
2022/12/01 11:46:05;;;;;;;4.42;3.02;;;;;;;2.15;100.00;100996.52;1637115;84;21143;-58
2022/12/01 11:48:36;;;;;;;5.92;2.70;;;;;;;2.14;100.00;100992.17;1639845;84;21815;-59
2022/12/01 11:51:12;;;;;;;3.30;2.58;;;;;;;2.16;100.00;100989.16;1649296;84;21675;-58
2022/12/01 11:53:41;;;;;;;5.22;2.90;;;;;;;2.16;100.00;100990.90;1645491;85;21037;-60
2022/12/01 11:56:27;;;;;;;4.78;2.75;;;;;;;2.13;100.00;100986.55;1646776;85;21525;-59
2022/12/01 11:59:02;;;;;;;3.80;2.72;;;;;;;2.11;100.00;100994.31;1628957;85;21520;-58
2022/12/01 12:01:47;;;;;;;4.08;2.85;;;;;;;2.07;100.00;100997.72;1639050;85;21873;-59
2022/12/01 12:04:51;;;;;;;3.55;2.67;;;;;;;1.99;100.00;100998.02;1617056;86;21452;-61
2022/12/01 12:08:15;;;;;;;4.03;2.98;;;;;;;1.95;100.00;100997.54;1612572;86;21506;-58
2022/12/01 12:10:49;;;;;;;4.08;2.20;;;;;;;1.95;100.00;100993.21;1649493;85;21516;-58
2022/12/01 12:13:52;;;;;;;5.87;2.70;;;;;;;1.95;100.00;100994.94;1647912;84;21470;-59
2022/12/01 12:17:05;;;;;;;3.00;2.37;;;;;;;1.95;100.00;100991.91;1643823;85;22113;-60
2022/12/01 12:19:55;;;;;;;3.75;2.55;;;;;;;1.93;100.00;100990.16;1644158;84;21588;-59
2022/12/01 12:23:04;;;;;;;2.55;2.08;;;;;;;1.90;100.00;100991.41;1632483;86;21567;-62
2022/12/01 12:25:46;;;;;;;3.65;2.12;;;;;;;1.88;100.00;100989.22;1531325;91;21632;-60
2022/12/01 12:28:28;;;;;;;4.12;2.30;;;;;;;1.78;100.00;100984.33;1621896;85;21456;-61
2022/12/01 12:31:49;;;;;;;2.65;2.12;;;;;;;1.75;100.00;100990.36;1637759;85;21783;-62
2022/12/01 12:35:03;;;;;;;2.90;2.37;;;;;;;1.69;100.00;100989.37;1608967;85;21533;-61
2022/12/01 12:37:44;;;;;;;3.90;2.35;;;;;;;1.68;100.00;100995.43;1649012;85;21577;-59
2022/12/01 12:40:59;;;;;;;3.40;2.77;;;;;;;1.60;100.00;100995.72;1644508;85;21567;-60
2022/12/01 12:43:56;;;;;;;3.58;2.42;;;;;;;1.56;100.00;101002.57;1646818;84;21514;-58
2022/12/01 12:46:49;;;;;;;5.67;2.60;;;;;;;1.45;100.00;101001.53;1649872;84;21866;-59
2022/12/01 12:49:39;;;;;;;3.90;2.70;;;;;;;1.43;100.00;101004.52;1572929;89;21051;-59
2022/12/01 12:52:19;;;;;;;4.75;1.98;;;;;;;1.39;100.00;101002.73;1574081;88;21501;-60
2022/12/01 12:54:53;;;;;;;3.50;2.47;;;;;;;1.26;100.00;100999.95;1578503;88;21448;-60
2022/12/01 12:57:26;;;;;;;3.22;2.15;;;;;;;1.20;100.00;101001.55;1574500;88;21637;-60
2022/12/01 13:00:28;;;;;;;4.05;2.30;;;;;;;1.09;100.00;101000.96;1573474;90;21870;-59
2022/12/01 13:03:14;;;;;;;2.45;2.15;;;;;;;1.03;100.00;101003.84;1642248;84;21553;-59
2022/12/01 13:05:55;;;;;;;2.20;2.00;;;;;;;0.92;100.00;101008.42;1642269;85;21580;-62
2022/12/01 13:08:37;;;;;;;2.65;2.30;;;;;;;0.90;100.00;101016.99;1642687;85;21592;-58
2022/12/01 13:11:43;;;;;;;3.87;2.37;;;;;;;0.81;100.00;101011.23;1641799;85;21455;-59
2022/12/01 13:14:33;;;;;;;6.45;2.27;;;;;;;0.72;100.00;101011.06;1646914;85;21837;-59
2022/12/01 13:17:17;;;;;;;2.52;2.33;;;;;;;0.59;100.00;101007.36;1618930;85;21540;-58
2022/12/01 13:19:43;;;;;;;2.42;2.22;;;;;;;0.52;100.00;101000.30;1642468;85;21638;-59
2022/12/01 13:22:11;;;;;;;2.35;2.10;;;;;;;0.44;100.00;101000.59;1643201;85;21557;-58
2022/12/01 13:24:38;;;;;;;;;;;;;;;0.40;100.00;100994.47;1650449;83;21490;-58
2022/12/01 13:27:12;;;;;;;3.98;2.30;;;;;;;0.28;100.00;100991.62;1643313;85;21977;-59
2022/12/01 13:29:42;;;;;;;5.22;2.83;;;;;;;0.29;100.00;100989.06;1659357;84;21083;-60
2022/12/01 13:32:32;;;;;;;3.15;2.15;;;;;;;0.28;100.00;100997.66;1670122;83;21513;-60
2022/12/01 13:34:59;;;;;;;2.83;2.17;;;;;;;0.29;100.00;101001.14;1621204;86;21601;-59
2022/12/01 13:37:28;;;;;;;;;;;;;;;0.28;100.00;101000.67;1650852;85;20952;-59
2022/12/01 13:39:55;;;;;;;2.47;1.95;;;;;;;0.21;100.00;101003.97;1646464;85;21126;-59
2022/12/01 13:42:25;;;;;;;2.37;2.02;;;;;;;0.25;100.00;101005.38;1642972;85;21520;-59
2022/12/01 13:44:58;;;;;;;3.60;2.42;;;;;;;0.28;100.00;101005.42;1608890;86;21072;-59
2022/12/01 13:47:51;;;;;;;3.40;2.58;;;;;;;0.11;100.00;100964.11;1609901;86;21590;-60
2022/12/01 13:50:47;;;;;;;3.08;2.10;;;;;;;0.37;100.00;101001.73;1602464;86;21623;-57
2022/12/01 13:53:40;;;;;;;3.35;2.52;;;;;;;0.37;100.00;101004.75;1590513;88;22133;-58
2022/12/01 13:56:36;;;;;;;3.20;2.83;;;;;;;0.37;100.00;100999.58;1586867;88;21583;-60
2022/12/01 18:58:26;;;;;;;6.30;2.85;;;;;;;-3.26;100.00;100981.45;1736157;76;22546;-62
2022/12/01 19:00:53;;;;;;;3.58;2.98;;;;;;;-3.07;100.00;100982.09;1668336;83;21422;-62
2022/12/01 19:03:20;;;;;;;4.90;3.45;;;;;;;-2.88;100.00;100981.89;1672729;83;21921;-62
2022/12/01 19:05:47;;;;;;;7.35;4.20;;;;;;;-2.68;100.00;100986.39;1670617;84;21616;-63
2022/12/01 19:08:13;;;;;;;8.48;5.05;;;;;;;-2.53;100.00;100982.57;1672231;83;21497;-66
2022/12/01 19:10:40;;;;;;;9.70;5.67;;;;;;;-2.37;100.00;100983.52;1669840;83;21497;-63
2022/12/01 19:13:07;;;;;;;7.62;4.58;;;;;;;-2.23;100.00;100986.52;1665737;83;21521;-63
2022/12/01 19:15:35;;;;;;;6.67;4.80;;;;;;;-2.12;100.00;100985.14;1668929;84;21793;-63
2022/12/01 19:18:03;;;;;;;8.35;4.58;;;;;;;-1.99;100.00;100977.36;1674358;83;21653;-64
2022/12/01 19:20:30;;;;;;;7.33;4.90;;;;;;;-1.88;100.00;100971.23;1671248;83;21466;-63
2022/12/01 19:22:57;;;;;;;6.28;4.37;;;;;;;-1.77;100.00;100967.27;1674856;83;21554;-63
2022/12/01 19:25:23;;;;;;;8.33;5.33;;;;;;;-1.64;100.00;100968.45;1676981;85;21594;-64
2022/12/01 19:27:52;;;;;;;10.50;5.70;;;;;;;-1.54;100.00;100967.00;1675820;83;21541;-64
2022/12/01 19:30:19;;;;;;;9.20;5.03;;;;;;;-1.53;100.00;100959.31;1669748;83;21068;-63
2022/12/01 19:32:46;;;;;;;8.33;5.35;;;;;;;-1.40;100.00;100969.55;1677534;83;21619;-63
2022/12/01 19:35:12;;;;;;;7.20;5.67;;;;;;;-1.33;100.00;100970.18;1672242;85;21581;-63
2022/12/01 19:37:39;;;;;;;8.20;5.85;;;;;;;-1.28;100.00;100966.42;1675159;83;21419;-63
2022/12/01 19:40:07;;;;;;;8.53;5.58;;;;;;;-1.25;100.00;100963.94;1656339;85;21822;-62
2022/12/01 19:42:34;;;;;;;7.72;5.10;;;;;;;-1.23;100.00;100963.13;1648297;86;21706;-63
2022/12/01 19:45:01;;;;;;;9.10;5.62;;;;;;;-1.22;100.00;100963.59;1649526;85;21594;-63
2022/12/01 19:47:32;;;;;;;8.13;5.50;;;;;;;-1.19;100.00;100961.11;1654822;86;21496;-63
2022/12/01 19:50:00;;;;;;;7.35;5.67;;;;;;;-1.19;100.00;100958.53;1667662;83;21416;-63
2022/12/01 19:52:27;;;;;;;9.43;6.00;;;;;;;-1.16;100.00;100955.56;1672031;85;21918;-62
2022/12/01 19:54:54;;;;;;;9.90;5.75;;;;;;;-1.17;100.00;100955.95;1669690;84;21441;-63
2022/12/01 19:57:21;;;;;;;9.50;6.22;;;;;;;-1.18;100.00;100958.97;1676656;83;21529;-63
2022/12/01 19:59:48;;;;;;;10.13;5.92;;;;;;;-1.19;100.00;100959.82;1678476;83;21595;-63
2022/12/01 20:02:14;;;;;;;8.75;6.28;;;;;;;-1.20;100.00;100955.47;1676835;83;21536;-62
2022/12/01 20:04:41;;;;;;;10.00;5.92;;;;;;;-1.20;100.00;100956.77;1684509;83;21812;-62
2022/12/01 20:07:07;;;;;;;11.08;5.65;;;;;;;-1.20;100.00;100958.05;1711070;82;21006;-63
2022/12/01 20:09:34;;;;;;;10.50;7.10;;;;;;;-1.19;100.00;100959.82;1716240;81;21517;-62
2022/12/01 20:12:01;;;;;;;10.50;6.12;;;;;;;-1.21;100.00;100961.45;1716741;81;21533;-63
2022/12/01 20:14:28;;;;;;;9.00;6.83;;;;;;;-1.20;100.00;100965.80;1717709;81;21006;-63
2022/12/01 20:16:54;;;;;;;7.70;5.12;;;;;;;-1.20;100.00;100967.09;1718153;81;21792;-63
2022/12/01 20:19:21;;;;;;;9.48;6.00;;;;;;;-1.21;100.00;100964.47;1706916;81;21656;-63
2022/12/01 20:21:48;;;;;;;9.50;6.20;;;;;;;-1.22;100.00;100964.89;1720088;81;21410;-64
2022/12/01 20:24:18;;;;;;;8.13;6.43;;;;;;;-1.22;100.00;100964.02;1712070;82;21290;-64
2022/12/01 20:26:51;;;;;;;8.48;5.67;;;;;;;-1.21;100.00;100964.47;1711964;82;21664;-63
2022/12/01 20:29:24;;;;;;;9.30;6.08;;;;;;;-1.21;100.00;100961.45;1709297;81;22128;-62
2022/12/01 20:31:50;;;;;;;9.53;6.47;;;;;;;-1.19;100.00;100963.69;1709214;81;21421;-64
2022/12/01 20:34:24;;;;;;;9.33;5.63;;;;;;;-1.21;100.00;100964.03;1716393;81;21527;-62
2022/12/01 20:36:51;;;;;;;11.15;6.22;;;;;;;-1.24;100.00;100966.55;1718447;81;21726;-64
2022/12/01 20:39:17;;;;;;;10.00;6.47;;;;;;;-1.23;100.00;100973.45;1715718;82;21459;-63
2022/12/01 20:41:44;;;;;;;7.85;6.10;;;;;;;-1.29;100.00;100972.01;1719021;81;21537;-62
2022/12/01 20:44:11;;;;;;;9.28;6.33;;;;;;;-1.29;100.00;100972.43;1714475;81;21602;-63
2022/12/01 20:46:39;;;;;;;9.75;6.00;;;;;;;-1.31;100.00;100971.09;1711271;81;21529;-63
2022/12/01 20:49:06;;;;;;;10.48;5.58;;;;;;;-1.35;100.00;100967.12;1710497;81;21657;-64
2022/12/01 20:51:34;;;;;;;9.75;5.95;;;;;;;-1.34;100.00;100971.00;1717055;81;21546;-63
2022/12/01 20:54:01;;;;;;;8.25;5.97;;;;;;;-1.27;100.00;100976.79;1723350;81;21816;-63
2022/12/01 20:56:28;;;;;;;8.05;5.25;;;;;;;-1.28;100.00;100975.06;1728689;81;21557;-63
2022/12/01 20:58:55;;;;;;;8.38;5.42;;;;;;;-1.27;100.00;100981.95;1715822;81;21476;-63
2022/12/01 21:01:21;;;;;;;8.53;6.30;;;;;;;-1.26;100.00;100983.71;1709699;82;21947;-63
2022/12/01 21:03:49;;;;;;;10.90;5.78;;;;;;;-1.25;100.00;100988.02;1710190;81;21510;-63
2022/12/01 21:06:16;;;;;;;9.25;5.92;;;;;;;-1.27;100.00;100979.37;1719040;81;21951;-63
2022/12/01 21:08:44;;;;;;;9.00;5.75;;;;;;;-1.26;100.00;100980.23;1690472;82;21641;-63
2022/12/01 21:14:38;;;;;;;8.30;5.40;;;;;;;-1.27;100.00;100984.53;1704151;81;21066;-68
2022/12/01 21:17:30;;;;;;;7.72;5.22;;;;;;;-1.26;100.00;100980.23;1720802;81;21438;-64
2022/12/01 21:20:10;;;;;;;7.20;4.90;;;;;;;-1.26;100.00;100977.27;1717281;81;21888;-64
2022/12/01 21:22:37;;;;;;;7.50;4.87;;;;;;;-1.26;100.00;100978.94;1708318;81;21462;-64
2022/12/01 21:25:14;;;;;;;6.42;5.05;;;;;;;-1.25;100.00;100980.70;1711801;82;21462;-64
2022/12/01 21:27:40;;;;;;;7.30;4.87;;;;;;;-1.27;100.00;100981.09;1711098;82;21570;-64
2022/12/01 21:30:20;;;;;;;6.50;4.83;;;;;;;-1.30;100.00;100978.41;1714522;82;21990;-64
2022/12/01 21:32:48;;;;;;;6.75;4.70;;;;;;;-1.28;100.00;100983.20;1711387;81;21808;-64
2022/12/01 21:35:21;;;;;;;8.23;4.90;;;;;;;-1.27;100.00;100980.66;1713974;81;21523;-64
2022/12/01 21:37:48;;;;;;;7.55;4.42;;;;;;;-1.24;100.00;100982.47;1713303;81;21463;-64
2022/12/01 21:40:21;;;;;;;10.40;4.83;;;;;;;-1.23;100.00;100984.20;1680103;83;21507;-64
2022/12/01 21:42:47;;;;;;;7.22;4.50;;;;;;;-1.22;100.00;100973.92;1708157;81;21451;-63
2022/12/01 21:45:35;;;;;;;5.87;4.42;;;;;;;-1.23;100.00;100977.32;1707296;82;21810;-61
2022/12/01 21:48:02;;;;;;;7.97;4.87;;;;;;;-1.26;100.00;100970.81;1713428;81;21608;-64
2022/12/01 21:50:29;;;;;;;7.20;4.65;;;;;;;-1.30;100.00;100974.15;1718735;81;21480;-64
2022/12/01 21:52:56;;;;;;;7.13;4.60;;;;;;;-1.32;100.00;100971.91;1708015;81;21054;-64
2022/12/01 21:55:31;;;;;;;5.33;4.50;;;;;;;-1.36;100.00;100966.22;1714564;81;26136;-64
2022/12/01 21:57:58;;;;;;;7.60;4.62;;;;;;;-1.33;100.00;100968.89;1714754;81;21792;-64
2022/12/01 22:00:32;;;;;;;8.18;4.62;;;;;;;-1.32;100.00;100968.47;1713855;81;21481;-64
2022/12/01 22:03:22;;;;;;;7.22;4.53;;;;;;;-1.37;100.00;100973.09;1707266;82;21443;-62
2022/12/01 22:05:50;;;;;;;7.15;4.78;;;;;;;-1.37;100.00;100971.80;1712895;83;21432;-65
2022/12/01 22:08:27;;;;;;;6.42;4.35;;;;;;;-1.40;100.00;100970.42;1701612;83;21463;-62
